logo
Search for airport 
image banner adimage banner adimage banner ad
image banner ad

MMLUA - La Burra

Located in Guerrero, Mexico

ICAO - , IATA -

Data provided by Airmate  

General information

Coordinates: N28°3'39" W100°9'51"
Elevation is 702 feet MSL.
Magnetic variation is 4° East
View others Airports in Coahuila

Operational data

Special qualification required
Current time UTC:
Current local time:
Weather at : KCZT - Dimmit County ( 61 km )
METAR: KCZT 220855Z AUTO 13007G14KT 7SM SCT015 26/25 A2973 RMK AO2
View NOTAMs / SUP AIP / TFR affecting this airport [VIEW]
Communications frequencies: [VIEW]

Runways:

RWY identifierQFULength (ft)Width (ft)SurfaceLDA (ft)
35356°3139118DIRT
17176°3139118DIRT

Airport contact information

Address: Guerrero Mexico

Satellite view of MMLUA